« 趣味的航空路誌改訂情報 2013/05/30 thu | トップページ | 道行 那覇空港 2013/3/5 tue »

2013/06/02

駒に惹かれて東北六魂祭 福島市 2013/6/1 sat

早いもので水無月。出先から駒に惹かれて、・・・ビュイっとな。

20130601_fukushima_00fu

20130601_fukushima_01fu

ついたは、福島駅。今日は東北復興のお祭り、「東北六魂祭」。

RJSF 010000Z 32003KT 250V060 CAVOK 18/08 Q1013

20130601_fukushima_02fu

国道四号線をメインに、東北六県のお祭りが大集合だ。

20130601_fukushima_03fu

福島市役所には自衛隊ブースも。隊長機は#745。

20130601_fukushima_04fu

ステージでは、まもなく開会式が始まる模様。

20130601_fukushima_05bi

自衛隊ブースにいらした第11飛行隊長田中二佐の、今シーズンワッペン。

RJST 010100Z 16007KT 120V180 9999 FEW005 SCT250 18/14 Q1013 RMK 1ST005 A2992

20130601_fukushima_06ja110b

上空では、福島県警のへりがヘリテレで会場周辺を警備している。

JA110B A109E 福島県警察

20130601_fukushima_07fu

ロケハンをしながら、周辺を偵察。この方角から本日のブルーインパルスの飛行が行われます。

時間までかなりあるので、当初想定した阿武隈川でシエスタ。

20130601_fukushima_08bi_2

13:58 5番機が天候と周辺偵察に飛来。

RJSF 010500Z 08006KT 030V160 9999 FEW050 BKN/// 24/03 Q1010

20130601_fukushima_09bi

幾度か周回して、ミッション・ゴー。

20130601_fukushima_10bi

14:08 ワイドデルタで飛行展示開始。見えるは福島県庁。小生は天神橋に陣取っています。

20130601_fukushima_11bi

偵察の5番機が集合して

20130601_fukushima_12bi

会場東側から

20130601_fukushima_13bi

デルタ360度ループですか

20130601_fukushima_14bi

20130601_fukushima_15bi_2

会場西側から再度進入して

20130601_fukushima_16bi

隊形変換中

20130601_fukushima_17bi

20130601_fukushima_18bi

サクラ

20130601_fukushima_19bi

会場に6つの輪が綺麗に描かれました。

20130601_fukushima_20bi

隊長機

20130601_fukushima_21bi_2

5・6番機が2機で

20130601_fukushima_22bi

オリジナル・キューピッド

20130601_fukushima_23bi

グッド!

20130601_fukushima_24bi

会場西側からファン・ブレイク

20130601_fukushima_25bi

なんだっけ・・・ と思っている間に 水平になって

20130601_fukushima_26bi

クロス・ブレイク カメラが追いついていません。

20130601_fukushima_27bi

トレイルからダイヤモンド

20130601_fukushima_28bi

4機のリーダーブネフィツト

20130601_fukushima_29bi

スワン?

20130601_fukushima_30bi

はい、大きなクローバー・リーフの出来上がり。

20130601_fukushima_31bi

5番機がぐーる・ぐる

20130601_fukushima_32bi

720度ターンかなぁ

20130601_fukushima_33bi_2

引いて引いて、ナウ 太陽が昇ります。

20130601_fukushima_34bi

伸ばして伸ばして、サンライズは日本の象徴。

20130601_fukushima_35bi

これにて、ミッションコンプリート。

20130601_fukushima_36bi

会場西側で編隊集合して、松島にRTB GJ!!! 800403

小生もRTB

20130601_fukushima_37ja62nh

祭りはこれから・・ 会場には報道へりが集まってきた。

JA62NH AS365N2 ANH

20130601_fukushima_38ja03cp_2

JA03CP EC135P2 CSP

|

« 趣味的航空路誌改訂情報 2013/05/30 thu | トップページ | 道行 那覇空港 2013/3/5 tue »

BI」カテゴリの記事

場外」カテゴリの記事

コメント

コメントを書く



(ウェブ上には掲載しません)


コメントは記事投稿者が公開するまで表示されません。



トラックバック


この記事へのトラックバック一覧です: 駒に惹かれて東北六魂祭 福島市 2013/6/1 sat:

« 趣味的航空路誌改訂情報 2013/05/30 thu | トップページ | 道行 那覇空港 2013/3/5 tue »